sensor_id;sensor_type;location;lat;lon;timestamp;P1;durP1;ratioP1;P2;durP2;ratioP2
14282;SDS011;7225;59.282;18.344;2022-08-19T00:00:11;19.23;;;13.88;;
14282;SDS011;7225;59.282;18.344;2022-08-19T00:02:41;19.55;;;14.27;;
14282;SDS011;7225;59.282;18.344;2022-08-19T00:05:17;18.60;;;14.73;;
14282;SDS011;7225;59.282;18.344;2022-08-19T00:07:46;22.17;;;16.73;;
14282;SDS011;7225;59.282;18.344;2022-08-19T00:10:16;22.97;;;16.53;;
14282;SDS011;7225;59.282;18.344;2022-08-19T00:12:46;22.43;;;15.73;;
14282;SDS011;7225;59.282;18.344;2022-08-19T00:15:17;20.52;;;14.80;;
14282;SDS011;7225;59.282;18.344;2022-08-19T00:17:47;20.97;;;16.60;;
14282;SDS011;7225;59.282;18.344;2022-08-19T00:20:17;20.95;;;15.38;;
14282;SDS011;7225;59.282;18.344;2022-08-19T00:22:46;21.63;;;15.75;;
14282;SDS011;7225;59.282;18.344;2022-08-19T00:25:15;21.77;;;16.20;;
14282;SDS011;7225;59.282;18.344;2022-08-19T00:27:43;19.05;;;14.57;;
14282;SDS011;7225;59.282;18.344;2022-08-19T00:30:11;21.10;;;15.77;;
14282;SDS011;7225;59.282;18.344;2022-08-19T00:32:40;21.77;;;15.85;;
14282;SDS011;7225;59.282;18.344;2022-08-19T00:35:08;22.23;;;15.77;;
14282;SDS011;7225;59.282;18.344;2022-08-19T00:37:36;23.95;;;16.08;;
14282;SDS011;7225;59.282;18.344;2022-08-19T00:40:05;23.08;;;16.42;;
14282;SDS011;7225;59.282;18.344;2022-08-19T00:42:34;20.42;;;15.38;;
14282;SDS011;7225;59.282;18.344;2022-08-19T00:45:08;20.20;;;16.98;;
14282;SDS011;7225;59.282;18.344;2022-08-19T00:47:38;20.45;;;16.08;;
14282;SDS011;7225;59.282;18.344;2022-08-19T00:50:07;21.23;;;16.48;;
14282;SDS011;7225;59.282;18.344;2022-08-19T00:52:38;20.98;;;16.20;;
14282;SDS011;7225;59.282;18.344;2022-08-19T00:55:18;26.02;;;17.52;;
14282;SDS011;7225;59.282;18.344;2022-08-19T00:57:54;24.02;;;17.58;;
14282;SDS011;7225;59.282;18.344;2022-08-19T01:00:27;22.13;;;17.20;;
14282;SDS011;7225;59.282;18.344;2022-08-19T01:02:56;22.27;;;18.10;;
14282;SDS011;7225;59.282;18.344;2022-08-19T01:05:25;20.88;;;16.77;;
14282;SDS011;7225;59.282;18.344;2022-08-19T01:07:57;22.60;;;16.65;;
14282;SDS011;7225;59.282;18.344;2022-08-19T01:10:30;19.70;;;16.45;;
14282;SDS011;7225;59.282;18.344;2022-08-19T01:13:04;20.73;;;16.63;;
14282;SDS011;7225;59.282;18.344;2022-08-19T01:15:34;22.25;;;17.80;;
14282;SDS011;7225;59.282;18.344;2022-08-19T01:18:09;23.63;;;18.08;;
14282;SDS011;7225;59.282;18.344;2022-08-19T01:20:40;20.27;;;16.65;;
14282;SDS011;7225;59.282;18.344;2022-08-19T01:23:10;21.95;;;16.75;;
14282;SDS011;7225;59.282;18.344;2022-08-19T01:25:42;22.10;;;17.40;;
14282;SDS011;7225;59.282;18.344;2022-08-19T01:28:22;22.65;;;16.92;;
14282;SDS011;7225;59.282;18.344;2022-08-19T01:31:06;18.85;;;16.58;;
14282;SDS011;7225;59.282;18.344;2022-08-19T01:33:54;20.92;;;17.02;;
14282;SDS011;7225;59.282;18.344;2022-08-19T01:36:34;22.52;;;16.67;;
14282;SDS011;7225;59.282;18.344;2022-08-19T01:39:11;20.00;;;15.43;;
14282;SDS011;7225;59.282;18.344;2022-08-19T01:41:42;21.63;;;15.98;;
14282;SDS011;7225;59.282;18.344;2022-08-19T01:44:10;21.05;;;16.58;;
14282;SDS011;7225;59.282;18.344;2022-08-19T01:46:46;19.20;;;16.38;;
14282;SDS011;7225;59.282;18.344;2022-08-19T01:49:17;21.13;;;16.80;;
14282;SDS011;7225;59.282;18.344;2022-08-19T01:51:49;19.42;;;16.50;;
14282;SDS011;7225;59.282;18.344;2022-08-19T01:54:18;22.13;;;16.60;;
14282;SDS011;7225;59.282;18.344;2022-08-19T01:56:56;18.75;;;16.17;;
14282;SDS011;7225;59.282;18.344;2022-08-19T01:59:33;21.08;;;16.38;;
14282;SDS011;7225;59.282;18.344;2022-08-19T02:02:04;20.63;;;16.23;;
14282;SDS011;7225;59.282;18.344;2022-08-19T02:04:35;20.05;;;15.98;;
14282;SDS011;7225;59.282;18.344;2022-08-19T02:07:05;24.55;;;17.42;;
14282;SDS011;7225;59.282;18.344;2022-08-19T02:09:35;26.63;;;18.30;;
14282;SDS011;7225;59.282;18.344;2022-08-19T02:12:04;17.85;;;15.77;;
14282;SDS011;7225;59.282;18.344;2022-08-19T02:14:36;21.63;;;16.95;;
14282;SDS011;7225;59.282;18.344;2022-08-19T02:17:04;23.40;;;15.82;;
14282;SDS011;7225;59.282;18.344;2022-08-19T02:19:34;19.63;;;16.85;;
14282;SDS011;7225;59.282;18.344;2022-08-19T02:22:05;21.30;;;16.70;;
14282;SDS011;7225;59.282;18.344;2022-08-19T02:24:33;22.10;;;17.35;;
14282;SDS011;7225;59.282;18.344;2022-08-19T02:27:01;20.33;;;16.95;;
14282;SDS011;7225;59.282;18.344;2022-08-19T02:29:29;24.63;;;18.65;;
14282;SDS011;7225;59.282;18.344;2022-08-19T02:31:57;25.33;;;16.92;;
14282;SDS011;7225;59.282;18.344;2022-08-19T02:34:25;23.60;;;16.55;;
14282;SDS011;7225;59.282;18.344;2022-08-19T02:36:53;22.95;;;16.45;;
14282;SDS011;7225;59.282;18.344;2022-08-19T02:39:21;24.25;;;17.27;;
14282;SDS011;7225;59.282;18.344;2022-08-19T02:41:50;25.58;;;18.48;;
14282;SDS011;7225;59.282;18.344;2022-08-19T02:44:21;26.10;;;18.20;;
14282;SDS011;7225;59.282;18.344;2022-08-19T02:46:57;24.60;;;18.17;;
14282;SDS011;7225;59.282;18.344;2022-08-19T02:49:25;25.50;;;17.67;;
14282;SDS011;7225;59.282;18.344;2022-08-19T02:51:52;28.27;;;20.05;;
14282;SDS011;7225;59.282;18.344;2022-08-19T02:54:22;24.75;;;18.02;;
14282;SDS011;7225;59.282;18.344;2022-08-19T02:56:50;32.67;;;18.98;;
14282;SDS011;7225;59.282;18.344;2022-08-19T02:59:19;31.55;;;21.23;;
14282;SDS011;7225;59.282;18.344;2022-08-19T03:01:49;27.88;;;19.35;;
14282;SDS011;7225;59.282;18.344;2022-08-19T03:04:19;33.13;;;19.17;;
14282;SDS011;7225;59.282;18.344;2022-08-19T03:06:46;32.85;;;19.40;;
14282;SDS011;7225;59.282;18.344;2022-08-19T03:09:14;30.63;;;18.98;;
14282;SDS011;7225;59.282;18.344;2022-08-19T03:11:43;27.40;;;19.55;;
14282;SDS011;7225;59.282;18.344;2022-08-19T03:14:12;30.50;;;19.52;;
14282;SDS011;7225;59.282;18.344;2022-08-19T03:16:41;30.52;;;20.02;;
14282;SDS011;7225;59.282;18.344;2022-08-19T03:19:12;34.05;;;20.45;;
14282;SDS011;7225;59.282;18.344;2022-08-19T03:21:41;28.17;;;19.38;;
14282;SDS011;7225;59.282;18.344;2022-08-19T03:24:13;32.05;;;19.33;;
14282;SDS011;7225;59.282;18.344;2022-08-19T03:26:42;30.92;;;20.27;;
14282;SDS011;7225;59.282;18.344;2022-08-19T03:29:13;29.10;;;18.88;;
14282;SDS011;7225;59.282;18.344;2022-08-19T03:31:57;26.55;;;17.80;;
14282;SDS011;7225;59.282;18.344;2022-08-19T03:34:28;20.90;;;16.00;;
14282;SDS011;7225;59.282;18.344;2022-08-19T03:37:02;22.13;;;16.52;;
14282;SDS011;7225;59.282;18.344;2022-08-19T03:39:37;26.05;;;18.02;;
14282;SDS011;7225;59.282;18.344;2022-08-19T03:42:07;24.77;;;17.70;;
14282;SDS011;7225;59.282;18.344;2022-08-19T03:44:56;26.35;;;16.90;;
14282;SDS011;7225;59.282;18.344;2022-08-19T03:47:26;26.92;;;17.65;;
14282;SDS011;7225;59.282;18.344;2022-08-19T03:49:54;26.90;;;17.48;;
14282;SDS011;7225;59.282;18.344;2022-08-19T03:52:22;23.92;;;16.48;;
14282;SDS011;7225;59.282;18.344;2022-08-19T03:54:50;20.20;;;15.82;;
14282;SDS011;7225;59.282;18.344;2022-08-19T03:57:18;20.17;;;15.93;;
14282;SDS011;7225;59.282;18.344;2022-08-19T03:59:45;21.77;;;16.33;;
14282;SDS011;7225;59.282;18.344;2022-08-19T04:02:13;23.38;;;15.70;;
14282;SDS011;7225;59.282;18.344;2022-08-19T04:04:42;21.77;;;15.40;;
14282;SDS011;7225;59.282;18.344;2022-08-19T04:07:13;22.02;;;16.23;;
14282;SDS011;7225;59.282;18.344;2022-08-19T04:09:45;23.02;;;16.08;;
14282;SDS011;7225;59.282;18.344;2022-08-19T04:12:13;24.90;;;16.45;;
14282;SDS011;7225;59.282;18.344;2022-08-19T04:14:41;23.52;;;15.70;;
14282;SDS011;7225;59.282;18.344;2022-08-19T04:17:09;26.27;;;16.20;;
14282;SDS011;7225;59.282;18.344;2022-08-19T04:19:38;32.13;;;15.93;;
14282;SDS011;7225;59.282;18.344;2022-08-19T04:22:05;23.08;;;16.15;;
14282;SDS011;7225;59.282;18.344;2022-08-19T04:24:34;20.95;;;15.68;;
14282;SDS011;7225;59.282;18.344;2022-08-19T04:27:02;23.88;;;17.08;;
14282;SDS011;7225;59.282;18.344;2022-08-19T04:29:33;23.27;;;16.90;;
14282;SDS011;7225;59.282;18.344;2022-08-19T04:32:02;22.13;;;16.52;;
14282;SDS011;7225;59.282;18.344;2022-08-19T04:34:36;18.73;;;15.10;;
14282;SDS011;7225;59.282;18.344;2022-08-19T04:37:26;18.95;;;14.95;;
14282;SDS011;7225;59.282;18.344;2022-08-19T04:40:02;22.42;;;16.60;;
14282;SDS011;7225;59.282;18.344;2022-08-19T04:42:53;23.10;;;16.85;;
14282;SDS011;7225;59.282;18.344;2022-08-19T04:45:22;20.35;;;14.73;;
14282;SDS011;7225;59.282;18.344;2022-08-19T04:47:53;20.15;;;15.55;;
14282;SDS011;7225;59.282;18.344;2022-08-19T04:50:44;19.75;;;14.52;;
14282;SDS011;7225;59.282;18.344;2022-08-19T04:53:12;21.02;;;15.40;;
14282;SDS011;7225;59.282;18.344;2022-08-19T04:55:40;19.90;;;14.95;;
14282;SDS011;7225;59.282;18.344;2022-08-19T04:58:10;22.98;;;14.63;;
14282;SDS011;7225;59.282;18.344;2022-08-19T05:00:38;20.33;;;15.07;;
14282;SDS011;7225;59.282;18.344;2022-08-19T05:03:07;17.20;;;13.73;;
14282;SDS011;7225;59.282;18.344;2022-08-19T05:05:43;19.75;;;13.13;;
14282;SDS011;7225;59.282;18.344;2022-08-19T05:08:13;18.75;;;13.45;;
14282;SDS011;7225;59.282;18.344;2022-08-19T05:10:57;20.17;;;14.30;;
14282;SDS011;7225;59.282;18.344;2022-08-19T05:13:26;19.95;;;13.80;;
14282;SDS011;7225;59.282;18.344;2022-08-19T05:15:54;22.58;;;14.60;;
14282;SDS011;7225;59.282;18.344;2022-08-19T05:18:24;18.70;;;13.98;;
14282;SDS011;7225;59.282;18.344;2022-08-19T05:21:12;17.77;;;12.43;;
14282;SDS011;7225;59.282;18.344;2022-08-19T05:24:01;17.23;;;12.52;;
14282;SDS011;7225;59.282;18.344;2022-08-19T05:26:31;15.88;;;12.40;;
14282;SDS011;7225;59.282;18.344;2022-08-19T05:29:00;16.45;;;12.85;;
14282;SDS011;7225;59.282;18.344;2022-08-19T05:31:29;14.48;;;11.25;;
14282;SDS011;7225;59.282;18.344;2022-08-19T05:33:58;18.55;;;12.93;;
14282;SDS011;7225;59.282;18.344;2022-08-19T05:36:28;15.10;;;10.70;;
14282;SDS011;7225;59.282;18.344;2022-08-19T05:39:03;13.50;;;11.05;;
14282;SDS011;7225;59.282;18.344;2022-08-19T05:41:31;13.95;;;10.95;;
14282;SDS011;7225;59.282;18.344;2022-08-19T05:44:01;14.77;;;11.82;;
14282;SDS011;7225;59.282;18.344;2022-08-19T05:46:33;18.00;;;12.23;;
14282;SDS011;7225;59.282;18.344;2022-08-19T05:49:03;19.00;;;11.65;;
14282;SDS011;7225;59.282;18.344;2022-08-19T05:51:33;16.08;;;10.90;;
14282;SDS011;7225;59.282;18.344;2022-08-19T05:54:05;14.43;;;12.00;;
14282;SDS011;7225;59.282;18.344;2022-08-19T05:56:35;17.77;;;11.38;;
14282;SDS011;7225;59.282;18.344;2022-08-19T05:59:07;10.18;;;8.70;;
14282;SDS011;7225;59.282;18.344;2022-08-19T06:01:39;11.75;;;9.77;;
14282;SDS011;7225;59.282;18.344;2022-08-19T06:04:09;10.70;;;9.07;;
14282;SDS011;7225;59.282;18.344;2022-08-19T06:06:38;15.35;;;8.80;;
14282;SDS011;7225;59.282;18.344;2022-08-19T06:09:07;11.85;;;8.27;;
14282;SDS011;7225;59.282;18.344;2022-08-19T06:11:42;12.10;;;7.72;;
14282;SDS011;7225;59.282;18.344;2022-08-19T06:14:16;11.02;;;8.48;;
14282;SDS011;7225;59.282;18.344;2022-08-19T06:19:18;13.15;;;7.43;;
14282;SDS011;7225;59.282;18.344;2022-08-19T06:21:49;11.30;;;7.88;;
14282;SDS011;7225;59.282;18.344;2022-08-19T06:24:21;9.02;;;6.78;;
14282;SDS011;7225;59.282;18.344;2022-08-19T06:26:52;11.88;;;7.55;;
14282;SDS011;7225;59.282;18.344;2022-08-19T06:29:30;10.60;;;7.15;;
14282;SDS011;7225;59.282;18.344;2022-08-19T06:31:59;12.05;;;8.10;;
14282;SDS011;7225;59.282;18.344;2022-08-19T06:34:31;12.80;;;7.18;;
14282;SDS011;7225;59.282;18.344;2022-08-19T06:37:01;12.30;;;7.15;;
14282;SDS011;7225;59.282;18.344;2022-08-19T06:39:32;8.32;;;6.75;;
14282;SDS011;7225;59.282;18.344;2022-08-19T06:42:03;11.57;;;6.65;;
14282;SDS011;7225;59.282;18.344;2022-08-19T06:44:37;15.02;;;7.03;;
14282;SDS011;7225;59.282;18.344;2022-08-19T06:47:10;9.90;;;6.63;;
14282;SDS011;7225;59.282;18.344;2022-08-19T06:49:55;10.32;;;6.20;;
14282;SDS011;7225;59.282;18.344;2022-08-19T06:52:33;11.52;;;6.20;;
14282;SDS011;7225;59.282;18.344;2022-08-19T06:55:03;12.05;;;6.85;;
14282;SDS011;7225;59.282;18.344;2022-08-19T06:57:33;11.48;;;6.35;;
14282;SDS011;7225;59.282;18.344;2022-08-19T07:00:05;7.63;;;5.82;;
14282;SDS011;7225;59.282;18.344;2022-08-19T07:02:40;10.63;;;6.20;;
14282;SDS011;7225;59.282;18.344;2022-08-19T07:05:22;11.25;;;5.80;;
14282;SDS011;7225;59.282;18.344;2022-08-19T07:07:50;8.30;;;5.07;;
14282;SDS011;7225;59.282;18.344;2022-08-19T07:10:20;8.43;;;5.30;;
14282;SDS011;7225;59.282;18.344;2022-08-19T07:12:51;8.00;;;5.07;;
14282;SDS011;7225;59.282;18.344;2022-08-19T07:15:19;11.93;;;5.07;;
14282;SDS011;7225;59.282;18.344;2022-08-19T07:17:48;8.20;;;4.70;;
14282;SDS011;7225;59.282;18.344;2022-08-19T07:20:18;5.30;;;4.03;;
14282;SDS011;7225;59.282;18.344;2022-08-19T07:22:47;7.40;;;4.35;;
14282;SDS011;7225;59.282;18.344;2022-08-19T07:25:17;10.30;;;4.90;;
14282;SDS011;7225;59.282;18.344;2022-08-19T07:27:59;7.85;;;4.72;;
14282;SDS011;7225;59.282;18.344;2022-08-19T07:30:28;10.13;;;5.25;;
14282;SDS011;7225;59.282;18.344;2022-08-19T07:32:58;7.10;;;5.13;;
14282;SDS011;7225;59.282;18.344;2022-08-19T07:35:30;8.13;;;4.45;;
14282;SDS011;7225;59.282;18.344;2022-08-19T07:38:00;5.30;;;4.40;;
14282;SDS011;7225;59.282;18.344;2022-08-19T07:40:30;6.53;;;4.85;;
14282;SDS011;7225;59.282;18.344;2022-08-19T07:42:58;6.18;;;4.15;;
14282;SDS011;7225;59.282;18.344;2022-08-19T07:45:27;8.95;;;4.10;;
14282;SDS011;7225;59.282;18.344;2022-08-19T07:47:56;8.35;;;4.47;;
14282;SDS011;7225;59.282;18.344;2022-08-19T07:50:25;10.75;;;4.78;;
14282;SDS011;7225;59.282;18.344;2022-08-19T07:52:53;6.88;;;4.40;;
14282;SDS011;7225;59.282;18.344;2022-08-19T07:55:24;8.75;;;4.68;;
14282;SDS011;7225;59.282;18.344;2022-08-19T07:58:14;6.53;;;4.30;;
14282;SDS011;7225;59.282;18.344;2022-08-19T08:00:49;6.47;;;4.47;;
14282;SDS011;7225;59.282;18.344;2022-08-19T08:03:19;6.70;;;4.38;;
14282;SDS011;7225;59.282;18.344;2022-08-19T08:05:47;5.00;;;4.50;;
14282;SDS011;7225;59.282;18.344;2022-08-19T08:08:34;7.13;;;4.18;;
14282;SDS011;7225;59.282;18.344;2022-08-19T08:11:21;9.57;;;4.90;;
14282;SDS011;7225;59.282;18.344;2022-08-19T08:13:51;8.95;;;4.55;;
14282;SDS011;7225;59.282;18.344;2022-08-19T08:16:28;5.78;;;4.15;;
14282;SDS011;7225;59.282;18.344;2022-08-19T08:19:01;8.80;;;4.72;;
14282;SDS011;7225;59.282;18.344;2022-08-19T08:21:45;6.50;;;4.55;;
14282;SDS011;7225;59.282;18.344;2022-08-19T08:24:15;6.45;;;4.53;;
14282;SDS011;7225;59.282;18.344;2022-08-19T08:26:43;7.88;;;4.28;;
14282;SDS011;7225;59.282;18.344;2022-08-19T08:29:19;8.13;;;4.50;;
14282;SDS011;7225;59.282;18.344;2022-08-19T08:31:46;16.70;;;5.10;;
14282;SDS011;7225;59.282;18.344;2022-08-19T08:34:25;8.75;;;4.45;;
14282;SDS011;7225;59.282;18.344;2022-08-19T08:36:54;8.00;;;5.05;;
14282;SDS011;7225;59.282;18.344;2022-08-19T08:39:23;7.90;;;3.97;;
14282;SDS011;7225;59.282;18.344;2022-08-19T08:44:37;9.73;;;5.43;;
14282;SDS011;7225;59.282;18.344;2022-08-19T08:47:09;6.90;;;4.50;;
14282;SDS011;7225;59.282;18.344;2022-08-19T08:50:01;5.10;;;4.45;;
14282;SDS011;7225;59.282;18.344;2022-08-19T08:52:34;5.88;;;4.45;;
14282;SDS011;7225;59.282;18.344;2022-08-19T08:55:12;6.60;;;4.20;;
14282;SDS011;7225;59.282;18.344;2022-08-19T09:00:15;8.98;;;4.85;;
14282;SDS011;7225;59.282;18.344;2022-08-19T09:03:08;8.52;;;5.15;;
14282;SDS011;7225;59.282;18.344;2022-08-19T09:08:32;8.70;;;4.63;;
14282;SDS011;7225;59.282;18.344;2022-08-19T09:11:15;10.73;;;5.05;;
14282;SDS011;7225;59.282;18.344;2022-08-19T09:17:16;8.00;;;5.50;;
14282;SDS011;7225;59.282;18.344;2022-08-19T09:22:22;7.05;;;4.95;;
14282;SDS011;7225;59.282;18.344;2022-08-19T09:24:53;7.15;;;5.20;;
14282;SDS011;7225;59.282;18.344;2022-08-19T09:27:22;9.52;;;5.78;;
14282;SDS011;7225;59.282;18.344;2022-08-19T09:30:15;11.50;;;4.95;;
14282;SDS011;7225;59.282;18.344;2022-08-19T09:32:47;6.30;;;4.82;;
14282;SDS011;7225;59.282;18.344;2022-08-19T09:35:23;13.77;;;5.20;;
14282;SDS011;7225;59.282;18.344;2022-08-19T09:37:55;9.88;;;5.07;;
14282;SDS011;7225;59.282;18.344;2022-08-19T09:40:26;8.75;;;4.80;;
14282;SDS011;7225;59.282;18.344;2022-08-19T09:42:57;11.50;;;5.30;;
14282;SDS011;7225;59.282;18.344;2022-08-19T09:45:37;6.72;;;5.07;;
14282;SDS011;7225;59.282;18.344;2022-08-19T09:48:05;12.88;;;4.80;;
14282;SDS011;7225;59.282;18.344;2022-08-19T09:50:36;23.65;;;6.05;;
14282;SDS011;7225;59.282;18.344;2022-08-19T09:53:21;6.97;;;4.38;;
14282;SDS011;7225;59.282;18.344;2022-08-19T09:55:57;6.97;;;4.80;;
14282;SDS011;7225;59.282;18.344;2022-08-19T09:58:25;8.32;;;4.40;;
14282;SDS011;7225;59.282;18.344;2022-08-19T10:00:56;8.27;;;4.72;;
14282;SDS011;7225;59.282;18.344;2022-08-19T10:03:26;8.80;;;5.22;;
14282;SDS011;7225;59.282;18.344;2022-08-19T10:05:58;6.43;;;4.85;;
14282;SDS011;7225;59.282;18.344;2022-08-19T10:08:29;5.22;;;4.18;;
14282;SDS011;7225;59.282;18.344;2022-08-19T10:11:05;7.00;;;5.10;;
14282;SDS011;7225;59.282;18.344;2022-08-19T10:13:55;6.65;;;4.28;;
14282;SDS011;7225;59.282;18.344;2022-08-19T10:16:24;9.02;;;4.53;;
14282;SDS011;7225;59.282;18.344;2022-08-19T10:18:58;9.35;;;5.10;;
14282;SDS011;7225;59.282;18.344;2022-08-19T10:21:30;8.23;;;5.15;;
14282;SDS011;7225;59.282;18.344;2022-08-19T10:24:01;7.10;;;4.78;;
14282;SDS011;7225;59.282;18.344;2022-08-19T10:26:35;9.88;;;5.05;;
14282;SDS011;7225;59.282;18.344;2022-08-19T10:29:05;6.40;;;4.90;;
14282;SDS011;7225;59.282;18.344;2022-08-19T10:31:36;5.18;;;4.30;;
14282;SDS011;7225;59.282;18.344;2022-08-19T10:34:27;6.75;;;4.50;;
14282;SDS011;7225;59.282;18.344;2022-08-19T10:36:57;6.35;;;4.68;;
14282;SDS011;7225;59.282;18.344;2022-08-19T10:39:29;6.10;;;4.55;;
14282;SDS011;7225;59.282;18.344;2022-08-19T10:42:09;11.18;;;5.18;;
14282;SDS011;7225;59.282;18.344;2022-08-19T10:44:40;10.77;;;4.68;;
14282;SDS011;7225;59.282;18.344;2022-08-19T10:47:08;5.45;;;4.80;;
14282;SDS011;7225;59.282;18.344;2022-08-19T10:49:52;5.07;;;4.63;;
14282;SDS011;7225;59.282;18.344;2022-08-19T10:52:40;12.85;;;5.53;;
14282;SDS011;7225;59.282;18.344;2022-08-19T10:55:19;7.85;;;4.97;;
14282;SDS011;7225;59.282;18.344;2022-08-19T10:58:14;8.60;;;5.13;;
14282;SDS011;7225;59.282;18.344;2022-08-19T11:00:54;6.53;;;4.85;;
14282;SDS011;7225;59.282;18.344;2022-08-19T11:03:25;6.28;;;4.45;;
14282;SDS011;7225;59.282;18.344;2022-08-19T11:06:03;7.18;;;4.43;;
14282;SDS011;7225;59.282;18.344;2022-08-19T11:08:34;7.47;;;4.95;;
14282;SDS011;7225;59.282;18.344;2022-08-19T11:11:05;8.18;;;4.55;;
14282;SDS011;7225;59.282;18.344;2022-08-19T11:13:35;10.27;;;5.65;;
14282;SDS011;7225;59.282;18.344;2022-08-19T11:16:07;8.05;;;4.93;;
14282;SDS011;7225;59.282;18.344;2022-08-19T11:18:39;7.25;;;4.55;;
14282;SDS011;7225;59.282;18.344;2022-08-19T11:21:17;8.68;;;5.13;;
14282;SDS011;7225;59.282;18.344;2022-08-19T11:23:49;13.85;;;4.38;;
14282;SDS011;7225;59.282;18.344;2022-08-19T11:26:21;10.85;;;5.38;;
14282;SDS011;7225;59.282;18.344;2022-08-19T11:28:52;4.95;;;4.45;;
14282;SDS011;7225;59.282;18.344;2022-08-19T11:31:24;7.03;;;4.47;;
14282;SDS011;7225;59.282;18.344;2022-08-19T11:33:58;7.03;;;5.03;;
14282;SDS011;7225;59.282;18.344;2022-08-19T11:36:29;4.78;;;4.00;;
14282;SDS011;7225;59.282;18.344;2022-08-19T11:39:00;9.25;;;4.53;;
14282;SDS011;7225;59.282;18.344;2022-08-19T11:41:31;8.85;;;4.72;;
14282;SDS011;7225;59.282;18.344;2022-08-19T11:43:59;9.82;;;4.63;;
14282;SDS011;7225;59.282;18.344;2022-08-19T11:46:28;6.68;;;4.70;;
14282;SDS011;7225;59.282;18.344;2022-08-19T11:48:57;8.48;;;4.40;;
14282;SDS011;7225;59.282;18.344;2022-08-19T11:51:27;7.07;;;4.40;;
14282;SDS011;7225;59.282;18.344;2022-08-19T11:53:57;9.90;;;4.60;;
14282;SDS011;7225;59.282;18.344;2022-08-19T11:56:27;6.00;;;4.28;;
14282;SDS011;7225;59.282;18.344;2022-08-19T11:58:57;7.65;;;4.38;;
14282;SDS011;7225;59.282;18.344;2022-08-19T12:01:26;8.38;;;5.07;;
14282;SDS011;7225;59.282;18.344;2022-08-19T12:03:54;7.65;;;5.03;;
14282;SDS011;7225;59.282;18.344;2022-08-19T12:06:24;5.05;;;4.57;;
14282;SDS011;7225;59.282;18.344;2022-08-19T12:08:58;5.75;;;4.57;;
14282;SDS011;7225;59.282;18.344;2022-08-19T12:11:28;6.88;;;4.57;;
14282;SDS011;7225;59.282;18.344;2022-08-19T12:14:01;7.90;;;4.55;;
14282;SDS011;7225;59.282;18.344;2022-08-19T12:16:30;8.05;;;4.82;;
14282;SDS011;7225;59.282;18.344;2022-08-19T12:19:00;7.43;;;4.85;;
14282;SDS011;7225;59.282;18.344;2022-08-19T12:21:32;8.50;;;4.75;;
14282;SDS011;7225;59.282;18.344;2022-08-19T12:24:03;6.90;;;5.07;;
14282;SDS011;7225;59.282;18.344;2022-08-19T12:26:33;8.10;;;5.03;;
14282;SDS011;7225;59.282;18.344;2022-08-19T12:29:20;6.00;;;4.43;;
14282;SDS011;7225;59.282;18.344;2022-08-19T12:31:51;8.82;;;5.38;;
14282;SDS011;7225;59.282;18.344;2022-08-19T12:34:20;9.60;;;4.80;;
14282;SDS011;7225;59.282;18.344;2022-08-19T12:36:48;7.60;;;5.30;;
14282;SDS011;7225;59.282;18.344;2022-08-19T12:39:17;8.45;;;4.20;;
14282;SDS011;7225;59.282;18.344;2022-08-19T12:41:46;8.93;;;5.05;;
14282;SDS011;7225;59.282;18.344;2022-08-19T12:44:21;5.50;;;4.95;;
14282;SDS011;7225;59.282;18.344;2022-08-19T12:46:58;6.80;;;4.70;;
14282;SDS011;7225;59.282;18.344;2022-08-19T12:49:27;9.07;;;4.80;;
14282;SDS011;7225;59.282;18.344;2022-08-19T12:52:16;5.57;;;4.18;;
14282;SDS011;7225;59.282;18.344;2022-08-19T12:54:51;6.45;;;4.60;;
14282;SDS011;7225;59.282;18.344;2022-08-19T12:57:23;7.97;;;4.60;;
14282;SDS011;7225;59.282;18.344;2022-08-19T13:00:00;6.25;;;4.43;;
14282;SDS011;7225;59.282;18.344;2022-08-19T13:02:33;6.82;;;4.18;;
14282;SDS011;7225;59.282;18.344;2022-08-19T13:05:05;5.78;;;4.90;;
14282;SDS011;7225;59.282;18.344;2022-08-19T13:07:37;6.57;;;4.70;;
14282;SDS011;7225;59.282;18.344;2022-08-19T13:10:07;5.63;;;4.38;;
14282;SDS011;7225;59.282;18.344;2022-08-19T13:12:41;5.95;;;4.82;;
14282;SDS011;7225;59.282;18.344;2022-08-19T13:15:10;8.38;;;5.07;;
14282;SDS011;7225;59.282;18.344;2022-08-19T13:17:41;7.57;;;4.90;;
14282;SDS011;7225;59.282;18.344;2022-08-19T13:20:09;8.23;;;5.40;;
14282;SDS011;7225;59.282;18.344;2022-08-19T13:22:38;8.88;;;5.07;;
14282;SDS011;7225;59.282;18.344;2022-08-19T13:25:07;6.35;;;5.20;;
14282;SDS011;7225;59.282;18.344;2022-08-19T13:27:36;10.80;;;4.88;;
14282;SDS011;7225;59.282;18.344;2022-08-19T13:30:07;6.85;;;5.13;;
14282;SDS011;7225;59.282;18.344;2022-08-19T13:32:58;9.55;;;5.13;;
14282;SDS011;7225;59.282;18.344;2022-08-19T13:35:38;9.00;;;5.60;;
14282;SDS011;7225;59.282;18.344;2022-08-19T13:38:09;9.60;;;5.25;;
14282;SDS011;7225;59.282;18.344;2022-08-19T13:40:39;9.55;;;5.45;;
14282;SDS011;7225;59.282;18.344;2022-08-19T13:43:08;10.23;;;5.72;;
14282;SDS011;7225;59.282;18.344;2022-08-19T13:45:50;9.55;;;5.45;;
14282;SDS011;7225;59.282;18.344;2022-08-19T13:48:22;7.47;;;5.07;;
14282;SDS011;7225;59.282;18.344;2022-08-19T13:50:50;9.80;;;5.78;;
14282;SDS011;7225;59.282;18.344;2022-08-19T13:53:18;10.30;;;6.15;;
14282;SDS011;7225;59.282;18.344;2022-08-19T13:55:46;12.00;;;6.57;;
14282;SDS011;7225;59.282;18.344;2022-08-19T13:58:17;7.88;;;5.18;;
14282;SDS011;7225;59.282;18.344;2022-08-19T14:00:45;9.07;;;5.40;;
14282;SDS011;7225;59.282;18.344;2022-08-19T14:03:14;7.30;;;5.55;;
14282;SDS011;7225;59.282;18.344;2022-08-19T14:05:43;13.07;;;5.97;;
14282;SDS011;7225;59.282;18.344;2022-08-19T14:08:12;7.88;;;6.20;;
14282;SDS011;7225;59.282;18.344;2022-08-19T14:10:42;8.35;;;6.20;;
14282;SDS011;7225;59.282;18.344;2022-08-19T14:13:13;7.63;;;5.78;;
14282;SDS011;7225;59.282;18.344;2022-08-19T14:15:44;9.32;;;6.30;;
14282;SDS011;7225;59.282;18.344;2022-08-19T14:18:13;11.07;;;5.97;;
14282;SDS011;7225;59.282;18.344;2022-08-19T14:20:43;8.13;;;5.85;;
14282;SDS011;7225;59.282;18.344;2022-08-19T14:23:12;6.82;;;5.43;;
14282;SDS011;7225;59.282;18.344;2022-08-19T14:25:41;13.02;;;6.60;;
14282;SDS011;7225;59.282;18.344;2022-08-19T14:28:11;6.88;;;5.80;;
14282;SDS011;7225;59.282;18.344;2022-08-19T14:30:40;13.30;;;6.18;;
14282;SDS011;7225;59.282;18.344;2022-08-19T14:33:08;9.02;;;5.90;;
14282;SDS011;7225;59.282;18.344;2022-08-19T14:35:36;9.98;;;5.82;;
14282;SDS011;7225;59.282;18.344;2022-08-19T14:38:05;13.55;;;6.65;;
14282;SDS011;7225;59.282;18.344;2022-08-19T14:40:42;22.17;;;6.60;;
14282;SDS011;7225;59.282;18.344;2022-08-19T14:43:11;10.88;;;6.55;;
14282;SDS011;7225;59.282;18.344;2022-08-19T14:45:43;8.13;;;6.03;;
14282;SDS011;7225;59.282;18.344;2022-08-19T14:48:11;10.25;;;6.57;;
14282;SDS011;7225;59.282;18.344;2022-08-19T14:50:47;11.63;;;6.20;;
14282;SDS011;7225;59.282;18.344;2022-08-19T14:53:16;10.90;;;6.07;;
14282;SDS011;7225;59.282;18.344;2022-08-19T14:55:45;10.65;;;6.50;;
14282;SDS011;7225;59.282;18.344;2022-08-19T14:58:12;11.80;;;6.28;;
14282;SDS011;7225;59.282;18.344;2022-08-19T15:00:57;10.23;;;6.45;;
14282;SDS011;7225;59.282;18.344;2022-08-19T15:03:27;11.00;;;6.15;;
14282;SDS011;7225;59.282;18.344;2022-08-19T15:05:55;8.68;;;6.25;;
14282;SDS011;7225;59.282;18.344;2022-08-19T15:08:26;10.13;;;6.45;;
14282;SDS011;7225;59.282;18.344;2022-08-19T15:10:55;8.10;;;6.10;;
14282;SDS011;7225;59.282;18.344;2022-08-19T15:13:23;7.88;;;6.22;;
14282;SDS011;7225;59.282;18.344;2022-08-19T15:15:52;8.80;;;5.70;;
14282;SDS011;7225;59.282;18.344;2022-08-19T15:18:21;7.93;;;6.22;;
14282;SDS011;7225;59.282;18.344;2022-08-19T15:20:49;10.40;;;6.25;;